Terminal Aerodrome Forecast
Issued by NWS

Home | Current Version | Previous Version | Text Only | Print | Product List | Glossary On
Versions: 1 2 3 4 5 6 7 8 9 10 11 12 13 14 15 16 17 18 19
470
FTUS43 KMQT 110534
TAFCMX
TAF
KCMX 110534Z 1106/1206 18005KT P6SM VCSH BKN025
     FM110800 19006KT P6SM VCSH BKN040
     FM111200 18006KT 2SM -SHSN OVC030
     FM111400 19005KT 1 1/2SM -SHSN OVC020
     FM112000 32016G27KT 1SM -SHSN BLSN BKN015
     FM112300 34018G30KT 3SM -SHSN BLSN BKN020
     FM120000 34018G30KT 4SM -SHSN BLSN BKN025
     FM120500 34016G26KT 2SM -SHSN BLSN OVC020=

USA.gov is the U.S. government's official web portal to all federal, state and local government web resources and services.